Main page
METAR-TAF:

METAR-TAF

Airports :

Abadan, Iran

Abadan Airport

latitude: 30-22N, longitude: 048-15E, elevation: 3 m

Current weather observation

The report was made 34 minutes ago, at 20:00 UTC
Wind 4 kt from the West
Temperature 10°C
Humidity 57%
Pressure 1024 hPa
Visibility 10 km or more
no clouds below 1500 m and no cumulonimbus

METAR: OIAA 182000Z 26004KT CAVOK 10/02 Q1024

Time: 00:04 (20:34 UTC)

Forecast

The report was made 3 hours and 4 minutes ago, at 17:30 UTC
Forecast valid from 18 at 18 UTC to 19 at 24 UTC
Wind 6 kt from the West/Northwest
Visibility: 7000 m
Temporary
from 19 at 00 UTC to 19 at 06 UTC
Visibility: 4000 m
haze

TAF: OIAA 181730Z 1818/1924 30003MPS 7000 NSC TEMPO 1900/1906 4000 HZ

Weather observations and forecasts of more than 4000 airports (METAR and TAF reports).

The available stations are represented by yellow and red dots on the map.

Hover mouse over dot to see the name of the station.

Then click to see weather observations and forecasts.

To change the map : click on the green buttons with a black cross to zoom in, on the green button with a dash to zoom out, or on the green arrows for adjacent maps.


METAR-TAF: